createdAt,value
2022-11-22T00:01:31.991Z,72.7
2022-11-22T00:02:31.105Z,72.6
2022-11-22T00:03:31.785Z,72.5
2022-11-22T00:04:31.386Z,72.4
2022-11-22T00:05:30.999Z,72.6
2022-11-22T00:06:31.009Z,72.6
2022-11-22T00:07:32.078Z,72.6
2022-11-22T00:08:31.007Z,72.5
2022-11-22T00:09:31.242Z,72.4
2022-11-22T00:10:31.641Z,72.5
2022-11-22T00:11:31.243Z,72.2
2022-11-22T00:12:31.622Z,72.1
2022-11-22T00:13:31.539Z,72.2
2022-11-22T00:14:31.002Z,72.1
2022-11-22T00:15:31.579Z,71.9
2022-11-22T00:16:31.060Z,71.9
2022-11-22T00:17:31.000Z,72
2022-11-22T00:18:30.997Z,72.2
2022-11-22T00:19:31.222Z,72.1
2022-11-22T00:20:31.185Z,72.1
2022-11-22T00:21:31.004Z,72.4
2022-11-22T00:22:31.534Z,72.3
2022-11-22T00:23:31.051Z,72.4
2022-11-22T00:24:31.002Z,72.5
2022-11-22T00:25:31.653Z,72.4
2022-11-22T00:26:31.268Z,72.5
2022-11-22T00:27:31.023Z,72.6
2022-11-22T00:28:30.999Z,72.5
2022-11-22T00:29:31.296Z,72.7
2022-11-22T00:30:31.011Z,72.7
2022-11-22T00:31:31.019Z,72.9
2022-11-22T00:33:31.210Z,72.7
2022-11-22T00:34:31.143Z,72.9
2022-11-22T00:35:31.535Z,73.1
2022-11-22T00:36:31.657Z,73.2
2022-11-22T00:37:31.332Z,73.4
2022-11-22T00:38:30.995Z,73.4
2022-11-22T00:39:31.519Z,73.3
2022-11-22T00:40:31.008Z,73.5
2022-11-22T00:41:31.748Z,73.7
2022-11-22T00:42:31.002Z,73.6
2022-11-22T00:43:31.004Z,73.5
2022-11-22T00:44:31.831Z,73.6
2022-11-22T00:45:31.003Z,73.8
2022-11-22T00:46:31.317Z,73.9
2022-11-22T00:47:31.002Z,74
2022-11-22T00:48:31.001Z,74.3
2022-11-22T00:49:31.704Z,74.4
2022-11-22T00:50:31.004Z,74.7
2022-11-22T00:51:31.005Z,75.1
2022-11-22T00:52:31.035Z,75.1
2022-11-22T00:53:30.998Z,75.6
2022-11-22T00:54:31.503Z,75.6
2022-11-22T00:55:31.642Z,75.8
2022-11-22T00:56:31.020Z,75.8
2022-11-22T00:57:31.002Z,76
2022-11-22T00:58:31.133Z,76.3
2022-11-22T00:59:31.520Z,76.1
2022-11-22T01:00:31.769Z,76.5
2022-11-22T01:01:31.399Z,76.6
2022-11-22T01:02:31.480Z,77
2022-11-22T01:03:31.018Z,77.5
2022-11-22T01:04:31.916Z,77.5
2022-11-22T01:05:31.005Z,77.5
2022-11-22T01:06:31.740Z,77.6
2022-11-22T01:07:31.669Z,77.6
2022-11-22T01:08:32.633Z,77.5
2022-11-22T01:09:32.106Z,77.8
2022-11-22T01:10:31.108Z,77.6
2022-11-22T01:11:30.999Z,77.8
2022-11-22T01:12:31.031Z,77.9
2022-11-22T01:13:31.004Z,78.2
2022-11-22T01:15:31.334Z,78.7
2022-11-22T01:16:31.003Z,78.9
2022-11-22T01:17:31.831Z,79.4
2022-11-22T01:18:31.003Z,79.3
2022-11-22T01:19:31.960Z,79.3
2022-11-22T01:20:31.345Z,79.1
2022-11-22T01:21:31.210Z,79
2022-11-22T01:22:31.049Z,79.1
2022-11-22T01:23:30.999Z,79
2022-11-22T01:24:31.512Z,79
2022-11-22T01:25:31.004Z,78.8
2022-11-22T01:26:31.010Z,78.8
2022-11-22T01:27:31.025Z,78.7
2022-11-22T01:28:31.109Z,78.7
2022-11-22T01:29:31.296Z,78.5
2022-11-22T01:30:31.003Z,78.8
2022-11-22T01:31:31.666Z,78.5
2022-11-22T01:32:31.067Z,78.5
2022-11-22T01:33:31.010Z,78.3
2022-11-22T01:34:31.681Z,78
2022-11-22T01:35:31.824Z,78
2022-11-22T01:36:31.449Z,78.5
2022-11-22T01:37:31.647Z,78.4
2022-11-22T01:38:31.007Z,78.5
2022-11-22T01:39:31.588Z,78.4
2022-11-22T01:40:31.109Z,78.3
2022-11-22T01:41:31.315Z,77.9
2022-11-22T01:42:31.011Z,77.8
2022-11-22T01:43:31.001Z,77.9
2022-11-22T01:44:31.004Z,78
2022-11-22T01:45:31.012Z,77.7
2022-11-22T01:46:31.016Z,77.8
2022-11-22T01:47:31.403Z,77.7
2022-11-22T01:48:31.509Z,77.8
2022-11-22T01:49:31.317Z,77.8
2022-11-22T01:50:30.998Z,77.7
2022-11-22T01:52:31.010Z,77.8
2022-11-22T01:53:31.574Z,77.8
2022-11-22T01:54:31.001Z,77.8
2022-11-22T01:55:31.006Z,77.7
2022-11-22T01:56:31.018Z,77.7
2022-11-22T01:57:31.462Z,77.6
2022-11-22T01:58:31.013Z,77.3
2022-11-22T01:59:31.570Z,77
2022-11-22T02:00:31.041Z,76.9
2022-11-22T02:01:31.778Z,77
2022-11-22T02:02:31.004Z,77.3
2022-11-22T02:03:31.001Z,77.4
2022-11-22T02:04:30.998Z,77.6
2022-11-22T02:05:31.753Z,77.9
2022-11-22T02:06:31.621Z,78
2022-11-22T02:07:31.485Z,78.1
2022-11-22T02:08:31.006Z,78.2
2022-11-22T02:09:31.430Z,78.3
2022-11-22T02:10:31.231Z,78.3
2022-11-22T02:11:34.313Z,78.3
2022-11-22T02:12:30.999Z,78.2
2022-11-22T02:13:30.999Z,78.4
2022-11-22T02:14:31.027Z,78.7
2022-11-22T02:15:31.507Z,78.5
2022-11-22T02:16:31.004Z,78.7
2022-11-22T02:17:31.005Z,78.8
2022-11-22T02:18:31.020Z,78.7
2022-11-22T02:19:31.724Z,78.7
2022-11-22T02:20:31.023Z,78.8
2022-11-22T02:21:31.815Z,78.8
2022-11-22T02:22:31.164Z,78.9
2022-11-22T02:23:31.037Z,78.8
2022-11-22T02:24:31.278Z,78.9
2022-11-22T02:25:31.004Z,79.2
2022-11-22T02:27:31.678Z,79.1
2022-11-22T02:28:31.004Z,79.2
2022-11-22T02:29:31.521Z,79
2022-11-22T02:30:31.040Z,78.8
2022-11-22T02:31:31.026Z,78.5
2022-11-22T02:32:30.998Z,78.4
2022-11-22T02:33:30.997Z,78
2022-11-22T02:34:31.013Z,77.7
2022-11-22T02:35:31.338Z,77.6
2022-11-22T02:36:31.043Z,77.5
2022-11-22T02:37:31.319Z,77.3
2022-11-22T02:38:31.014Z,77.1
2022-11-22T02:39:31.279Z,77.2
2022-11-22T02:40:31.007Z,77.1
2022-11-22T02:41:31.004Z,77
2022-11-22T02:42:31.042Z,77.2
2022-11-22T02:44:31.000Z,77.5
2022-11-22T02:45:31.112Z,77.4
2022-11-22T02:46:31.000Z,77.5
2022-11-22T02:47:31.191Z,77.5
2022-11-22T02:48:30.995Z,77.6
2022-11-22T02:49:31.410Z,77.4
2022-11-22T02:50:31.829Z,77.4
2022-11-22T02:51:31.024Z,77.5
2022-11-22T02:52:31.010Z,77.3
2022-11-22T02:53:31.002Z,77.2
2022-11-22T02:54:31.028Z,77.3
2022-11-22T02:55:31.095Z,77.3
2022-11-22T02:56:32.444Z,77.1
2022-11-22T02:57:31.007Z,77.4
2022-11-22T02:58:31.009Z,77.7
2022-11-22T02:59:31.375Z,77.6
2022-11-22T03:00:30.997Z,77.7
2022-11-22T03:01:31.114Z,77.8
2022-11-22T03:02:31.465Z,77.5
2022-11-22T03:03:31.104Z,77.5
2022-11-22T03:04:31.008Z,77.5
2022-11-22T03:05:31.009Z,77.4
2022-11-22T03:06:31.012Z,77.7
2022-11-22T03:07:31.199Z,77.8
2022-11-22T03:08:31.002Z,77.9
2022-11-22T03:09:32.083Z,78.1
2022-11-22T03:10:31.002Z,78
2022-11-22T03:11:31.332Z,77.9
2022-11-22T03:12:31.014Z,78
2022-11-22T03:13:31.007Z,77.8
2022-11-22T03:14:31.000Z,77.6
2022-11-22T03:15:31.591Z,77.8
2022-11-22T03:16:31.523Z,78.1
2022-11-22T03:17:30.998Z,78.4
2022-11-22T03:18:31.712Z,78.1
2022-11-22T03:19:31.435Z,77.8
2022-11-22T03:20:31.022Z,77.8
2022-11-22T03:21:31.601Z,77.6
2022-11-22T03:22:31.334Z,77.5
2022-11-22T03:23:31.188Z,77.5
2022-11-22T03:24:31.001Z,77.2
2022-11-22T03:25:31.007Z,77.1
2022-11-22T03:26:31.003Z,77.1
2022-11-22T03:27:31.669Z,77
2022-11-22T03:28:31.007Z,76.9
2022-11-22T03:29:31.204Z,76.8
2022-11-22T03:30:31.011Z,77.2
2022-11-22T03:31:31.015Z,77.3
2022-11-22T03:32:31.000Z,77.5
2022-11-22T03:33:31.038Z,77.3
2022-11-22T03:34:31.046Z,77.3
2022-11-22T03:35:31.703Z,77.3
2022-11-22T03:36:31.013Z,77.7
2022-11-22T03:37:31.005Z,77.7
2022-11-22T03:38:31.291Z,77.8
2022-11-22T03:39:32.091Z,77.8
2022-11-22T03:40:31.089Z,77.8
2022-11-22T03:41:31.005Z,77.7
2022-11-22T03:42:31.485Z,77.4
2022-11-22T03:43:31.011Z,77.4
2022-11-22T03:44:31.751Z,77.4
2022-11-22T03:45:31.218Z,77.5
2022-11-22T03:46:31.009Z,77.9
2022-11-22T03:47:31.006Z,77.7
2022-11-22T03:48:31.002Z,78
2022-11-22T03:49:31.993Z,78.2
2022-11-22T03:51:31.739Z,77.9
2022-11-22T03:52:31.003Z,77.9
2022-11-22T03:53:31.202Z,77.9
2022-11-22T03:54:31.303Z,78.1
2022-11-22T03:55:31.005Z,78.4
2022-11-22T03:56:31.565Z,78.2
2022-11-22T03:57:31.010Z,78.1
2022-11-22T03:58:30.998Z,78
2022-11-22T03:59:31.261Z,77.7
2022-11-22T04:00:31.706Z,77.4
2022-11-22T04:01:31.527Z,77.2
2022-11-22T04:02:31.107Z,76.9
2022-11-22T04:03:31.650Z,77
2022-11-22T04:04:31.030Z,76.9
2022-11-22T04:05:31.024Z,76.9
2022-11-22T04:06:31.025Z,77
2022-11-22T04:07:31.291Z,77.1
2022-11-22T04:08:31.071Z,77.3
2022-11-22T04:09:32.097Z,77.3
2022-11-22T04:12:31.795Z,77.6
2022-11-22T04:13:31.147Z,77.5
2022-11-22T04:14:31.008Z,77.6
2022-11-22T04:15:31.489Z,77.7
2022-11-22T04:16:31.003Z,77.7
2022-11-22T04:17:31.472Z,77.9
2022-11-22T04:18:31.036Z,77.6
2022-11-22T04:19:31.170Z,77.5
2022-11-22T04:20:31.689Z,77.5
2022-11-22T04:21:31.010Z,77.1
2022-11-22T04:22:31.106Z,77.5
2022-11-22T04:23:34.263Z,77.9
2022-11-22T04:24:31.010Z,78
2022-11-22T04:25:31.306Z,77.8
2022-11-22T04:26:31.005Z,77.8
2022-11-22T04:27:31.003Z,77.7
2022-11-22T04:28:53.683Z,77.7
2022-11-22T04:29:31.889Z,77.5
2022-11-22T04:30:31.009Z,77.4
2022-11-22T04:31:31.008Z,77.5
2022-11-22T04:32:31.531Z,77.6
2022-11-22T04:33:31.013Z,77.5
2022-11-22T04:34:31.026Z,77.3
2022-11-22T04:35:31.031Z,77.2
2022-11-22T04:36:31.006Z,77.2
2022-11-22T04:37:31.006Z,76.8
2022-11-22T04:38:31.598Z,77.3
2022-11-22T04:39:31.353Z,77.3
2022-11-22T04:40:31.418Z,77.4
2022-11-22T04:41:31.008Z,77.1
2022-11-22T04:42:31.162Z,77.1
2022-11-22T04:43:31.290Z,77.1
2022-11-22T04:44:31.018Z,77.1
2022-11-22T04:47:37.583Z,77
2022-11-22T04:50:31.014Z,77.3
2022-11-22T04:51:31.012Z,77.3
2022-11-22T04:52:31.034Z,77.2
2022-11-22T04:53:31.012Z,76.8
2022-11-22T04:54:31.084Z,76.8
2022-11-22T04:55:31.261Z,76.7
2022-11-22T04:56:31.017Z,76.7
2022-11-22T04:57:31.364Z,76.5
2022-11-22T04:58:31.206Z,76.5
2022-11-22T04:59:31.295Z,76.7
2022-11-22T05:04:31.978Z,77.1
2022-11-22T05:05:31.121Z,77
2022-11-22T05:06:31.027Z,76.9
2022-11-22T05:07:31.405Z,76.9
2022-11-22T05:08:31.007Z,76.8
2022-11-22T05:09:31.442Z,77
2022-11-22T05:10:31.023Z,77.2
2022-11-22T05:11:31.578Z,77.2
2022-11-22T05:12:31.180Z,77.2
2022-11-22T05:13:31.030Z,77.1
2022-11-22T05:15:31.287Z,76.9
2022-11-22T05:16:31.006Z,76.8
2022-11-22T05:17:31.989Z,76.6
2022-11-22T05:18:31.007Z,76.5
2022-11-22T05:19:32.064Z,76.3
2022-11-22T05:20:31.784Z,76.3
2022-11-22T05:21:31.007Z,76.2
2022-11-22T05:23:31.012Z,76.6
2022-11-22T05:27:31.030Z,77.1
2022-11-22T05:28:31.017Z,77.2
2022-11-22T05:29:31.340Z,77.2
2022-11-22T05:30:31.446Z,77
2022-11-22T05:31:31.779Z,76.7
2022-11-22T05:32:31.436Z,76.6
2022-11-22T05:33:31.079Z,76.4
2022-11-22T05:34:31.008Z,76.1
2022-11-22T05:35:31.453Z,75.9
2022-11-22T05:36:31.011Z,75.7
2022-11-22T05:37:31.030Z,75.8
2022-11-22T05:38:31.364Z,75.6
2022-11-22T05:39:31.357Z,75.7
2022-11-22T05:40:31.020Z,75.6
2022-11-22T05:41:31.008Z,75.8
2022-11-22T05:42:31.519Z,75.9
2022-11-22T05:43:31.882Z,75.9
2022-11-22T05:44:31.013Z,75.7
2022-11-22T05:45:31.008Z,75.8
2022-11-22T05:46:31.001Z,75.6
2022-11-22T05:47:31.029Z,75.5
2022-11-22T05:49:31.825Z,75.8
2022-11-22T05:50:31.007Z,76.1
2022-11-22T05:52:31.014Z,75.9
2022-11-22T05:53:31.010Z,75.7
2022-11-22T05:54:31.301Z,75.7
2022-11-22T05:55:31.059Z,75.8
2022-11-22T05:56:31.552Z,75.8
2022-11-22T05:57:31.023Z,75.8
2022-11-22T05:58:31.002Z,75.6
2022-11-22T06:01:31.028Z,75.4
2022-11-22T06:02:31.732Z,75.1
2022-11-22T06:03:31.857Z,74.8
2022-11-22T06:04:31.007Z,74.8
2022-11-22T06:05:31.012Z,74.7
2022-11-22T06:06:31.007Z,74.4
2022-11-22T06:07:31.319Z,74.5
2022-11-22T06:08:31.359Z,74.3
2022-11-22T06:09:31.302Z,74.6
2022-11-22T06:13:31.005Z,74.4
2022-11-22T06:14:31.023Z,74.2
2022-11-22T06:15:31.100Z,74.1
2022-11-22T06:16:31.570Z,73.8
2022-11-22T06:17:31.011Z,73.6
2022-11-22T06:18:31.569Z,73.5
2022-11-22T06:19:32.357Z,73.3
2022-11-22T06:20:31.334Z,73.5
2022-11-22T06:22:31.008Z,73.9
2022-11-22T06:23:31.243Z,73.9
2022-11-22T06:24:31.229Z,74.1
2022-11-22T06:25:31.068Z,74
2022-11-22T06:26:36.104Z,74
2022-11-22T06:27:31.821Z,73.8
2022-11-22T06:28:31.747Z,73.8
2022-11-22T06:29:31.370Z,73.9
2022-11-22T06:30:31.011Z,74
2022-11-22T06:33:31.019Z,73.5
2022-11-22T06:34:31.010Z,73.5
2022-11-22T06:35:31.545Z,73.3
2022-11-22T06:36:31.262Z,73.2
2022-11-22T06:37:31.925Z,73.6
2022-11-22T06:38:31.751Z,73.6
2022-11-22T06:39:31.828Z,73.6
2022-11-22T06:40:31.009Z,73.7
2022-11-22T06:41:31.021Z,73.4
2022-11-22T06:44:31.828Z,73.6
2022-11-22T06:45:31.005Z,73.5
2022-11-22T06:46:31.006Z,73.4
2022-11-22T06:47:31.033Z,73.3
2022-11-22T06:48:31.020Z,73.3
2022-11-22T06:49:32.032Z,73.2
2022-11-22T06:50:31.004Z,73.4
2022-11-22T06:51:31.009Z,73.2
2022-11-22T06:52:31.177Z,72.9
2022-11-22T06:53:46.633Z,72.9
2022-11-22T06:54:31.082Z,72.7
2022-11-22T06:55:49.598Z,72.6
2022-11-22T06:56:31.066Z,72.7
2022-11-22T06:57:31.008Z,72.4
2022-11-22T06:58:31.655Z,72.2
2022-11-22T06:59:32.268Z,72.3
2022-11-22T07:00:31.011Z,72.3
2022-11-22T07:01:33.032Z,72.3
2022-11-22T07:02:31.032Z,72
2022-11-22T07:03:31.223Z,71.9
2022-11-22T07:06:31.492Z,71.5
2022-11-22T07:07:31.582Z,71.1
2022-11-22T07:08:31.003Z,70.6
2022-11-22T07:09:31.525Z,71
2022-11-22T07:10:31.035Z,71.1
2022-11-22T07:11:31.016Z,71.1
2022-11-22T07:12:31.001Z,71.5
2022-11-22T07:13:31.014Z,71.6
2022-11-22T07:14:31.721Z,71.6
2022-11-22T07:15:31.535Z,71.5
2022-11-22T07:17:31.006Z,71
2022-11-22T07:18:31.005Z,71.1
2022-11-22T07:19:31.235Z,70.8
2022-11-22T07:20:31.003Z,70.6
2022-11-22T07:21:31.066Z,70.5
2022-11-22T07:22:31.014Z,70.3
2022-11-22T07:23:31.473Z,70.4
2022-11-22T07:24:31.014Z,70.5
2022-11-22T07:25:31.335Z,70.7
2022-11-22T07:26:31.692Z,70.8
2022-11-22T07:28:31.719Z,70.7
2022-11-22T07:29:31.641Z,70.5
2022-11-22T07:30:31.095Z,70.6
2022-11-22T07:32:31.011Z,70.2
2022-11-22T07:33:31.008Z,70.2
2022-11-22T07:34:31.007Z,70.1
2022-11-22T07:35:31.017Z,69.9
2022-11-22T07:36:31.008Z,69.9
2022-11-22T07:37:31.499Z,69.9
2022-11-22T07:38:31.014Z,69.7
2022-11-22T07:39:31.423Z,69.2
2022-11-22T07:40:31.604Z,69.1
2022-11-22T07:41:31.868Z,69.1
2022-11-22T07:42:31.749Z,69.1
2022-11-22T07:43:31.008Z,68.9
2022-11-22T07:44:31.542Z,68.8
2022-11-22T07:45:31.009Z,68.7
2022-11-22T07:46:31.063Z,68.8
2022-11-22T07:47:31.398Z,69
2022-11-22T07:48:31.488Z,68.8
2022-11-22T07:49:31.370Z,68.7
2022-11-22T07:50:31.024Z,68.7
2022-11-22T07:51:31.613Z,68.5
2022-11-22T07:53:31.008Z,68.5
2022-11-22T07:54:31.748Z,68.5
2022-11-22T07:55:31.016Z,68.4
2022-11-22T07:56:31.062Z,68.2
2022-11-22T07:57:31.010Z,68.3
2022-11-22T07:58:31.007Z,68.3
2022-11-22T07:59:31.421Z,68
2022-11-22T08:00:31.015Z,67.8
2022-11-22T08:01:31.092Z,67.7
2022-11-22T08:02:31.459Z,67.6
2022-11-22T08:03:31.186Z,67.9
2022-11-22T08:04:31.005Z,67.8
2022-11-22T08:05:31.031Z,67.8
2022-11-22T08:06:31.054Z,67.6
2022-11-22T08:07:31.072Z,67.6
2022-11-22T08:12:31.124Z,67.8
2022-11-22T08:13:31.175Z,67.8
2022-11-22T08:14:31.019Z,67.9
2022-11-22T08:15:31.014Z,67.4
2022-11-22T08:16:31.007Z,67.7
2022-11-22T08:17:31.085Z,67.6
2022-11-22T08:18:31.005Z,67.7
2022-11-22T08:19:31.260Z,67.9
2022-11-22T08:20:31.815Z,67.5
2022-11-22T08:23:31.725Z,67.6
2022-11-22T08:24:31.010Z,67.5
2022-11-22T08:25:31.461Z,67.4
2022-11-22T08:26:31.005Z,67.2
2022-11-22T08:27:31.441Z,67.2
2022-11-22T08:28:31.324Z,67.3
2022-11-22T08:29:31.261Z,67.3
2022-11-22T08:30:31.006Z,67.5
2022-11-22T08:31:31.017Z,67.5
2022-11-22T08:32:31.003Z,67.6
2022-11-22T08:33:31.082Z,67.4
2022-11-22T08:34:31.228Z,67.1
2022-11-22T08:35:31.708Z,67.1
2022-11-22T08:36:31.012Z,67.1
2022-11-22T08:37:31.020Z,67.4
2022-11-22T08:38:31.003Z,67.6
2022-11-22T08:39:31.761Z,67.5
2022-11-22T08:40:31.013Z,67.7
2022-11-22T08:41:31.813Z,67.6
2022-11-22T08:42:31.023Z,67.2
2022-11-22T08:43:31.206Z,67.2
2022-11-22T08:44:31.067Z,67.4
2022-11-22T08:45:31.013Z,67.7
2022-11-22T08:46:31.103Z,67.6
2022-11-22T08:47:31.028Z,67.6
2022-11-22T08:48:31.020Z,67.7
2022-11-22T08:49:32.287Z,67.8
2022-11-22T08:51:31.006Z,67.9
2022-11-22T08:52:31.014Z,67.7
2022-11-22T08:54:36.189Z,67.9
2022-11-22T08:55:31.031Z,68
2022-11-22T08:56:31.013Z,67.9
2022-11-22T08:57:31.721Z,67.7
2022-11-22T08:58:31.013Z,68.1
2022-11-22T08:59:31.243Z,68
2022-11-22T09:00:33.453Z,67.6
2022-11-22T09:01:31.181Z,67.8
2022-11-22T09:02:31.013Z,67.7
2022-11-22T09:03:31.139Z,67.3
2022-11-22T09:05:31.206Z,67.2
2022-11-22T09:08:34.377Z,67
2022-11-22T09:09:37.454Z,66.7
2022-11-22T09:10:31.011Z,66.6
2022-11-22T09:12:31.009Z,66.5
2022-11-22T09:13:31.016Z,66
2022-11-22T09:14:31.132Z,66.1
2022-11-22T09:15:31.585Z,66.3
2022-11-22T09:16:31.010Z,66.6
2022-11-22T09:17:31.082Z,66.5
2022-11-22T09:18:31.463Z,66.3
2022-11-22T09:19:31.358Z,66.4
2022-11-22T09:20:31.009Z,65.7
2022-11-22T09:21:31.001Z,66.1
2022-11-22T09:22:31.741Z,65.8
2022-11-22T09:23:31.893Z,65.9
2022-11-22T09:24:31.006Z,66
2022-11-22T09:26:31.298Z,65.4
2022-11-22T09:27:31.014Z,65.6
2022-11-22T09:28:31.676Z,65.7
2022-11-22T09:29:31.286Z,65.4
2022-11-22T09:30:31.033Z,64.9
2022-11-22T09:31:31.650Z,64.8
2022-11-22T09:32:33.786Z,64.9
2022-11-22T09:33:31.048Z,64.7
2022-11-22T09:34:31.003Z,64.4
2022-11-22T09:36:31.024Z,64.5
2022-11-22T09:37:31.002Z,64.5
2022-11-22T09:39:31.849Z,64.2
2022-11-22T09:40:31.002Z,64.6
2022-11-22T09:41:31.007Z,64.2
2022-11-22T09:42:31.489Z,63.6
2022-11-22T09:43:31.946Z,63.9
2022-11-22T09:44:31.543Z,63.9
2022-11-22T09:45:31.219Z,64.2
2022-11-22T09:47:31.445Z,63.9
2022-11-22T09:48:31.482Z,63.6
2022-11-22T09:49:31.928Z,64
2022-11-22T09:50:31.122Z,63.3
2022-11-22T09:51:31.503Z,63.4
2022-11-22T09:52:31.396Z,63.5
2022-11-22T09:53:31.096Z,63.8
2022-11-22T09:54:30.999Z,63.8
2022-11-22T09:55:31.021Z,63.8
2022-11-22T09:56:31.716Z,63.4
2022-11-22T09:57:31.639Z,63.5
2022-11-22T09:58:31.000Z,63.5
2022-11-22T09:59:31.313Z,63.4
2022-11-22T10:00:31.020Z,63.3
2022-11-22T10:01:31.787Z,63.7
2022-11-22T10:02:39.180Z,63.9
2022-11-22T10:03:31.465Z,63.7
2022-11-22T10:04:31.020Z,63.6
2022-11-22T10:05:31.075Z,63.7
2022-11-22T10:06:31.379Z,63.3
2022-11-22T10:07:31.814Z,62.5
2022-11-22T10:09:31.209Z,62.8
2022-11-22T10:10:31.003Z,62.7
2022-11-22T10:11:36.254Z,62.8
2022-11-22T10:12:31.020Z,63
2022-11-22T10:13:31.006Z,62.8
2022-11-22T10:14:31.006Z,62.8
2022-11-22T10:15:31.009Z,62.5
2022-11-22T10:16:31.128Z,62.6
2022-11-22T10:17:31.886Z,62.2
2022-11-22T10:18:31.010Z,62.4
2022-11-22T10:19:31.655Z,62.6
2022-11-22T10:20:31.253Z,62.5
2022-11-22T10:21:30.999Z,61.9
2022-11-22T10:22:31.563Z,62.1
2022-11-22T10:23:31.423Z,62.3
2022-11-22T10:24:31.000Z,61.9
2022-11-22T10:25:31.011Z,62.1
2022-11-22T10:26:31.004Z,62.1
2022-11-22T10:27:31.010Z,62
2022-11-22T10:29:31.629Z,62.3
2022-11-22T10:30:31.007Z,62.3
2022-11-22T10:31:31.768Z,61.7
2022-11-22T10:32:31.013Z,61.8
2022-11-22T10:33:31.394Z,62.1
2022-11-22T10:34:31.651Z,61.9
2022-11-22T10:35:31.015Z,62.8
2022-11-22T10:36:31.007Z,62.1
2022-11-22T10:37:31.575Z,62
2022-11-22T10:40:31.619Z,61.6
2022-11-22T10:41:32.248Z,61.8
2022-11-22T10:42:31.300Z,61.6
2022-11-22T10:43:31.074Z,61.5
2022-11-22T10:44:31.038Z,61
2022-11-22T10:45:31.016Z,61.4
2022-11-22T10:46:31.080Z,60.3
2022-11-22T10:47:34.416Z,60.2
2022-11-22T10:48:31.006Z,60
2022-11-22T10:49:31.363Z,59.7
2022-11-22T10:51:31.140Z,59.1
2022-11-22T10:52:31.009Z,59.1
2022-11-22T10:53:31.870Z,59.3
2022-11-22T10:54:31.008Z,58.8
2022-11-22T10:55:31.111Z,59.1
2022-11-22T10:56:31.725Z,58.6
2022-11-22T10:57:31.664Z,58.8
2022-11-22T10:58:31.011Z,59
2022-11-22T10:59:31.201Z,58.2
2022-11-22T11:00:31.004Z,57.5
2022-11-22T11:01:31.070Z,57.6
2022-11-22T11:02:31.013Z,57.7
2022-11-22T11:03:31.008Z,57.6
2022-11-22T11:04:31.001Z,57.6
2022-11-22T11:05:31.035Z,57.3
2022-11-22T11:06:56.542Z,57.2
2022-11-22T11:07:31.039Z,56.8
2022-11-22T11:08:54.418Z,56.4
2022-11-22T11:10:34.337Z,55.6
2022-11-22T11:11:31.009Z,55.6
2022-11-22T11:12:31.235Z,55.7
2022-11-22T11:13:31.897Z,56.4
2022-11-22T11:14:31.375Z,56.9
2022-11-22T11:15:31.040Z,56.9
2022-11-22T11:16:31.012Z,56.6
2022-11-22T11:17:31.336Z,56.3
2022-11-22T11:18:31.127Z,56
2022-11-22T11:19:31.019Z,56
2022-11-22T11:20:31.022Z,55
2022-11-22T11:22:58.602Z,54.4
2022-11-22T11:23:31.003Z,54.3
2022-11-22T11:24:31.564Z,53.9
2022-11-22T11:25:31.067Z,54.2
2022-11-22T11:26:31.748Z,54.1
2022-11-22T11:27:31.002Z,53.8
2022-11-22T11:28:31.029Z,53.6
2022-11-22T11:29:33.303Z,53.7
2022-11-22T11:30:31.641Z,54
2022-11-22T11:31:31.861Z,53.7
2022-11-22T11:33:31.192Z,53
2022-11-22T11:34:31.340Z,52.9
2022-11-22T11:35:31.280Z,53
2022-11-22T11:36:31.569Z,52.7
2022-11-22T11:37:31.039Z,52.4
2022-11-22T11:38:31.011Z,52.3
2022-11-22T11:39:31.609Z,52.5
2022-11-22T11:40:31.762Z,52.9
2022-11-22T11:41:31.521Z,52.4
2022-11-22T11:43:31.622Z,52.4
2022-11-22T11:44:32.459Z,52
2022-11-22T11:45:31.304Z,52
2022-11-22T11:46:31.006Z,52.4
2022-11-22T11:47:31.755Z,52.4
2022-11-22T11:48:31.633Z,52.4
2022-11-22T11:49:31.409Z,53
2022-11-22T11:50:31.054Z,52.4
2022-11-22T11:51:31.742Z,51.9
2022-11-22T11:52:31.028Z,52.5
2022-11-22T11:53:31.018Z,52.8
2022-11-22T11:54:31.760Z,52.7
2022-11-22T11:55:31.010Z,53.2
2022-11-22T11:56:31.724Z,53.5
2022-11-22T11:57:31.687Z,54
2022-11-22T11:58:31.021Z,54
2022-11-22T11:59:31.659Z,54.2
2022-11-22T12:00:31.017Z,54.2
2022-11-22T12:01:35.759Z,54.2
2022-11-22T12:02:31.141Z,54.4
2022-11-22T12:04:31.209Z,54.7
2022-11-22T12:05:31.015Z,54.8
2022-11-22T12:06:31.104Z,54.7
2022-11-22T12:07:31.567Z,54.5
2022-11-22T12:08:31.016Z,54.7
2022-11-22T12:09:31.012Z,54.9
2022-11-22T12:10:31.012Z,54.8
2022-11-22T12:11:31.026Z,55
2022-11-22T12:12:31.017Z,54.7
2022-11-22T12:13:31.015Z,54.6
2022-11-22T12:14:48.819Z,54.9
2022-11-22T12:15:31.037Z,55
2022-11-22T12:16:31.077Z,54.5
2022-11-22T12:17:31.372Z,55
2022-11-22T12:18:31.014Z,55.1
2022-11-22T12:19:31.028Z,55.3
2022-11-22T12:21:31.463Z,55.1
2022-11-22T12:22:48.819Z,55.4
2022-11-22T12:23:31.385Z,55.6
2022-11-22T12:26:31.959Z,56.4
2022-11-22T12:27:31.900Z,56.8
2022-11-22T12:28:31.025Z,56.4
2022-11-22T12:29:31.138Z,56.5
2022-11-22T12:30:31.028Z,56.8
2022-11-22T12:31:31.757Z,57
2022-11-22T12:32:31.016Z,56.7
2022-11-22T12:33:31.021Z,56.9
2022-11-22T12:34:31.386Z,56.6
2022-11-22T12:35:31.449Z,56.4
2022-11-22T12:37:32.139Z,55.1
2022-11-22T12:38:31.895Z,55.5
2022-11-22T12:39:31.018Z,55.9
2022-11-22T12:40:31.024Z,56.2
2022-11-22T12:41:31.019Z,56.3
2022-11-22T12:42:31.024Z,56.4
2022-11-22T12:43:31.451Z,56.8
2022-11-22T12:44:32.052Z,56.9
2022-11-22T12:45:31.241Z,56.6
2022-11-22T12:46:31.134Z,57.2
2022-11-22T12:47:31.702Z,57.1
2022-11-22T12:48:31.419Z,57.3
2022-11-22T12:49:31.025Z,57.6
2022-11-22T12:50:31.805Z,57.6
2022-11-22T12:51:31.359Z,57.6
2022-11-22T12:52:31.016Z,57.5
2022-11-22T12:53:31.020Z,57.7
2022-11-22T12:54:31.975Z,57.9
2022-11-22T12:55:31.653Z,57.8
2022-11-22T12:58:31.021Z,58.1
2022-11-22T12:59:31.015Z,58.1
2022-11-22T13:00:31.678Z,58.3
2022-11-22T13:01:31.081Z,58.1
2022-11-22T13:02:31.034Z,57.4
2022-11-22T13:03:31.018Z,58
2022-11-22T13:04:31.958Z,58.3
2022-11-22T13:05:31.020Z,58.1
2022-11-22T13:06:31.400Z,58.1
2022-11-22T13:07:31.301Z,58.3
2022-11-22T13:08:31.021Z,58
2022-11-22T13:09:31.905Z,58.1
2022-11-22T13:10:31.510Z,57.9
2022-11-22T13:11:31.017Z,58.1
2022-11-22T13:12:31.642Z,58.1
2022-11-22T13:13:31.059Z,58.3
2022-11-22T13:14:32.098Z,58.7
2022-11-22T13:15:31.661Z,58.6
2022-11-22T13:16:31.037Z,58.3
2022-11-22T13:17:31.092Z,58
2022-11-22T13:18:31.255Z,58.1
2022-11-22T13:20:31.408Z,58
2022-11-22T13:21:31.026Z,58
2022-11-22T13:22:31.206Z,58.1
2022-11-22T13:23:31.043Z,58
2022-11-22T13:24:31.278Z,58.3
2022-11-22T13:25:31.175Z,58.6
2022-11-22T13:26:31.027Z,59.1
2022-11-22T13:27:31.335Z,58.9
2022-11-22T13:28:31.026Z,58.6
2022-11-22T13:29:31.180Z,58.5
2022-11-22T13:32:31.201Z,58.4
2022-11-22T13:33:31.022Z,58.5
2022-11-22T13:34:31.372Z,58.3
2022-11-22T13:35:31.930Z,58.4
2022-11-22T13:36:31.022Z,58.5
2022-11-22T13:37:31.509Z,58.6
2022-11-22T13:38:31.680Z,58.6
2022-11-22T13:39:31.018Z,58.9
2022-11-22T13:40:31.045Z,58.6
2022-11-22T13:41:31.027Z,59.1
2022-11-22T13:42:31.019Z,58.8
2022-11-22T13:43:31.221Z,58.8
2022-11-22T13:45:31.019Z,58.9
2022-11-22T13:46:31.024Z,58.9
2022-11-22T13:47:31.825Z,59
2022-11-22T13:48:31.503Z,59.1
2022-11-22T13:49:37.226Z,59.3
2022-11-22T13:50:31.021Z,59.2
2022-11-22T13:51:31.377Z,59
2022-11-22T13:53:31.362Z,58.8
2022-11-22T13:54:31.453Z,58.6
2022-11-22T13:55:31.028Z,58.8
2022-11-22T13:56:31.036Z,58.7
2022-11-22T13:57:31.695Z,59.1
2022-11-22T13:58:31.173Z,59
2022-11-22T13:59:32.297Z,58.9
2022-11-22T14:00:31.028Z,58.4
2022-11-22T14:01:31.088Z,58.4
2022-11-22T14:02:31.368Z,58.6
2022-11-22T14:05:33.467Z,58.9
2022-11-22T14:06:31.193Z,58.8
2022-11-22T14:07:31.071Z,59.1
2022-11-22T14:08:31.028Z,58.8
2022-11-22T14:09:31.952Z,59.1
2022-11-22T14:10:31.098Z,59.2
2022-11-22T14:11:31.229Z,59.3
2022-11-22T14:12:31.025Z,59
2022-11-22T14:13:31.031Z,59.1
2022-11-22T14:14:31.281Z,59.2
2022-11-22T14:16:31.184Z,59.1
2022-11-22T14:17:31.029Z,59.3
2022-11-22T14:18:31.069Z,59.4
2022-11-22T14:19:31.833Z,59.2
2022-11-22T14:20:31.209Z,59.6
2022-11-22T14:21:31.030Z,59.7
2022-11-22T14:23:31.082Z,60.1
2022-11-22T14:24:31.586Z,60.1
2022-11-22T14:25:31.270Z,60.3
2022-11-22T14:26:31.825Z,60.2
2022-11-22T14:27:31.127Z,60.1
2022-11-22T14:28:31.681Z,59.9
2022-11-22T14:30:31.049Z,60
2022-11-22T14:31:31.084Z,60.1
2022-11-22T14:32:31.553Z,60
2022-11-22T14:33:31.025Z,60.1
2022-11-22T14:35:31.339Z,60.3
2022-11-22T14:36:31.146Z,60.1
2022-11-22T14:39:33.671Z,60.5
2022-11-22T14:40:31.114Z,60.5
2022-11-22T14:41:31.142Z,60.6
2022-11-22T14:42:31.027Z,60.7
2022-11-22T14:43:31.030Z,60.5
2022-11-22T14:44:31.028Z,60.5
2022-11-22T14:45:31.020Z,60.5
2022-11-22T14:46:52.256Z,60.5
2022-11-22T14:47:31.037Z,61
2022-11-22T14:48:31.142Z,61.2